createdAt,value
2022-10-25T00:01:27.595Z,28.60
2022-10-25T00:03:56.076Z,26.10
2022-10-25T00:06:24.345Z,27.70
2022-10-25T00:08:52.277Z,24.50
2022-10-25T00:11:22.889Z,29.10
2022-10-25T00:13:53.190Z,25.80
2022-10-25T00:16:25.509Z,25.80
2022-10-25T00:18:53.912Z,28.60
2022-10-25T00:21:22.338Z,26.40
2022-10-25T00:23:50.916Z,29.80
2022-10-25T00:26:19.966Z,24.80
2022-10-25T00:28:48.641Z,30.50
2022-10-25T00:31:17.532Z,25.70
2022-10-25T00:33:45.701Z,22.40
2022-10-25T00:36:17.152Z,31.10
2022-10-25T00:38:46.147Z,26.40
2022-10-25T00:41:17.862Z,28.50
2022-10-25T00:43:48.582Z,35.00
2022-10-25T00:48:57.588Z,23.70
2022-10-25T00:51:33.576Z,25.90
2022-10-25T00:54:01.735Z,24.70
2022-10-25T00:56:33.518Z,29.50
2022-10-25T00:59:04.409Z,26.80
2022-10-25T01:04:05.008Z,29.00
2022-10-25T01:07:02.546Z,29.40
2022-10-25T01:09:32.982Z,28.30
2022-10-25T01:12:00.912Z,28.70
2022-10-25T01:14:29.817Z,32.20
2022-10-25T01:17:19.024Z,36.80
2022-10-25T01:19:49.921Z,27.20
2022-10-25T01:25:09.930Z,26.50
2022-10-25T01:30:31.238Z,27.80
2022-10-25T01:32:59.015Z,24.70
2022-10-25T01:35:30.995Z,29.90
2022-10-25T01:38:15.401Z,26.40
2022-10-25T01:40:53.097Z,25.80
2022-10-25T01:43:51.706Z,27.10
2022-10-25T01:46:34.739Z,28.50
2022-10-25T01:49:11.076Z,22.70
2022-10-25T01:51:39.060Z,26.90
2022-10-25T01:54:27.805Z,25.10
2022-10-25T01:57:25.493Z,31.10
2022-10-25T02:00:14.250Z,21.90
2022-10-25T02:02:45.324Z,24.10
2022-10-25T02:05:27.625Z,26.50
2022-10-25T02:08:08.840Z,27.20
2022-10-25T02:10:44.010Z,23.40
2022-10-25T02:13:28.545Z,25.00
2022-10-25T02:16:23.627Z,23.00
2022-10-25T02:18:59.173Z,22.60
2022-10-25T02:21:28.706Z,23.30
2022-10-25T02:23:59.909Z,31.20
2022-10-25T02:26:28.186Z,29.10
2022-10-25T02:28:57.098Z,22.20
2022-10-25T02:31:26.477Z,25.00
2022-10-25T02:33:54.345Z,23.80
2022-10-25T02:36:23.999Z,22.30
2022-10-25T02:38:53.338Z,23.10
2022-10-25T02:41:22.405Z,31.10
2022-10-25T02:43:50.360Z,28.10
2022-10-25T02:46:20.813Z,36.70
2022-10-25T02:48:49.692Z,22.30
2022-10-25T02:51:18.437Z,25.60
2022-10-25T02:53:46.776Z,23.80
2022-10-25T02:56:17.926Z,23.00
2022-10-25T02:58:47.366Z,21.40
2022-10-25T03:01:17.143Z,23.00
2022-10-25T03:03:45.279Z,21.40
2022-10-25T03:06:14.342Z,22.70
2022-10-25T03:08:42.962Z,23.90
2022-10-25T03:11:12.464Z,18.90
2022-10-25T03:13:40.364Z,24.70
2022-10-25T03:16:08.985Z,24.10
2022-10-25T03:18:37.315Z,26.50
2022-10-25T03:21:05.678Z,24.20
2022-10-25T03:23:33.696Z,29.40
2022-10-25T03:26:01.580Z,23.10
2022-10-25T03:28:30.451Z,27.20
2022-10-25T03:30:59.965Z,24.00
2022-10-25T03:33:28.165Z,30.90
2022-10-25T03:35:56.966Z,36.20
2022-10-25T03:38:24.709Z,31.20
2022-10-25T03:40:53.521Z,27.60
2022-10-25T03:45:49.084Z,29.10
2022-10-25T03:48:16.987Z,31.60
2022-10-25T03:50:44.903Z,30.80
2022-10-25T03:53:12.647Z,31.70
2022-10-25T03:55:40.494Z,25.30
2022-10-25T03:58:08.162Z,35.00
2022-10-25T04:00:36.050Z,29.50
2022-10-25T04:03:04.033Z,24.80
2022-10-25T04:05:32.457Z,23.70
2022-10-25T04:08:00.361Z,23.70
2022-10-25T04:10:28.275Z,30.60
2022-10-25T04:12:56.039Z,32.30
2022-10-25T04:15:24.562Z,38.30
2022-10-25T04:17:53.124Z,32.20
2022-10-25T04:20:21.719Z,25.30
2022-10-25T04:22:55.188Z,26.50
2022-10-25T04:25:25.326Z,21.20
2022-10-25T04:27:53.614Z,21.00
2022-10-25T04:30:21.659Z,23.50
2022-10-25T04:32:49.873Z,28.00
2022-10-25T04:35:18.092Z,24.10
2022-10-25T04:37:45.934Z,22.30
2022-10-25T04:40:13.733Z,19.80
2022-10-25T04:42:41.675Z,24.20
2022-10-25T04:45:10.397Z,26.20
2022-10-25T04:47:38.363Z,26.00
2022-10-25T04:50:06.915Z,29.40
2022-10-25T04:52:34.675Z,23.60
2022-10-25T04:55:02.550Z,29.40
2022-10-25T04:57:30.722Z,31.70
2022-10-25T04:59:59.231Z,27.20
2022-10-25T05:02:27.273Z,23.30
2022-10-25T05:04:55.117Z,24.10
2022-10-25T05:07:22.932Z,23.50
2022-10-25T05:09:50.729Z,38.50
2022-10-25T05:12:18.491Z,28.10
2022-10-25T05:14:46.887Z,27.30
2022-10-25T05:17:14.740Z,29.40
2022-10-25T05:19:42.550Z,27.10
2022-10-25T05:22:10.257Z,29.80
2022-10-25T05:24:37.978Z,35.30
2022-10-25T05:27:05.726Z,29.30
2022-10-25T05:29:33.522Z,47.50
2022-10-25T05:32:01.325Z,37.00
2022-10-25T05:34:29.320Z,35.70
2022-10-25T05:36:57.830Z,32.80
2022-10-25T05:39:25.646Z,31.30
2022-10-25T05:41:53.481Z,30.70
2022-10-25T05:44:21.238Z,33.70
2022-10-25T05:46:49.055Z,32.00
2022-10-25T05:49:17.172Z,31.10
2022-10-25T05:51:45.081Z,33.80
2022-10-25T05:54:15.438Z,39.20
2022-10-25T05:56:43.751Z,37.20
2022-10-25T05:59:14.425Z,37.70
2022-10-25T06:01:45.004Z,43.90
2022-10-25T06:04:13.806Z,39.90
2022-10-25T06:06:43.657Z,32.10
2022-10-25T06:09:12.677Z,33.80
2022-10-25T06:11:40.997Z,41.30
2022-10-25T06:14:10.825Z,37.10
2022-10-25T06:16:39.166Z,39.50
2022-10-25T06:19:09.071Z,66.10
2022-10-25T06:21:37.297Z,49.10
2022-10-25T06:24:05.553Z,49.60
2022-10-25T06:26:33.515Z,45.90
2022-10-25T06:29:03.127Z,48.60
2022-10-25T06:31:32.316Z,44.60
2022-10-25T06:34:01.313Z,41.00
2022-10-25T06:36:31.073Z,40.40
2022-10-25T06:39:05.455Z,42.10
2022-10-25T06:41:36.930Z,44.50
2022-10-25T06:44:07.127Z,49.40
2022-10-25T06:47:04.480Z,50.10
2022-10-25T06:51:54.226Z,51.50
2022-10-25T06:54:22.067Z,52.40
2022-10-25T06:56:50.071Z,47.80
2022-10-25T06:59:19.414Z,68.20
2022-10-25T07:01:47.487Z,61.70
2022-10-25T07:04:15.804Z,88.10
2022-10-25T07:06:43.670Z,53.00
2022-10-25T07:09:13.134Z,46.30
2022-10-25T07:11:41.290Z,49.80
2022-10-25T07:14:09.493Z,38.80
2022-10-25T07:16:37.289Z,42.70
2022-10-25T07:19:05.227Z,41.70
2022-10-25T07:21:34.079Z,48.70
2022-10-25T07:24:02.362Z,45.40
2022-10-25T07:26:34.925Z,53.40
2022-10-25T07:29:04.535Z,47.40
2022-10-25T07:31:41.500Z,51.30
2022-10-25T07:34:12.812Z,42.40
2022-10-25T07:36:41.383Z,54.90
2022-10-25T07:39:09.358Z,47.50
2022-10-25T07:41:37.102Z,51.50
2022-10-25T07:44:05.046Z,52.40
2022-10-25T07:46:32.849Z,46.50
2022-10-25T07:49:00.630Z,50.00
2022-10-25T07:51:28.594Z,52.40
2022-10-25T07:53:56.334Z,66.90
2022-10-25T07:56:24.113Z,56.40
2022-10-25T07:58:52.647Z,51.40
2022-10-25T08:01:23.143Z,64.40
2022-10-25T08:03:51.868Z,57.60
2022-10-25T08:06:21.247Z,53.60
2022-10-25T08:08:49.241Z,68.90
2022-10-25T08:11:17.696Z,51.10
2022-10-25T08:13:48.536Z,59.10
2022-10-25T08:16:16.384Z,67.30
2022-10-25T08:18:44.516Z,58.20
2022-10-25T08:21:12.716Z,66.80
2022-10-25T08:23:40.471Z,56.90
2022-10-25T08:26:08.514Z,61.60
2022-10-25T08:28:36.257Z,72.10
2022-10-25T08:31:04.658Z,73.60
2022-10-25T08:33:33.421Z,67.40
2022-10-25T08:36:02.571Z,67.80
2022-10-25T08:38:30.366Z,69.40
2022-10-25T08:41:19.137Z,76.80
2022-10-25T08:44:20.977Z,64.00
2022-10-25T08:47:29.723Z,67.20
2022-10-25T08:50:06.618Z,78.80
2022-10-25T08:52:41.270Z,66.20
2022-10-25T08:55:16.926Z,71.90
2022-10-25T08:57:47.608Z,70.30
2022-10-25T09:00:22.526Z,74.70
2022-10-25T09:02:54.287Z,71.30
2022-10-25T09:05:34.580Z,68.80
2022-10-25T09:08:28.868Z,76.30
2022-10-25T09:11:15.194Z,72.60
2022-10-25T09:14:00.160Z,82.70
2022-10-25T09:16:49.726Z,65.90
2022-10-25T09:19:21.285Z,69.50
2022-10-25T09:22:01.809Z,78.00
2022-10-25T09:24:47.836Z,66.10
2022-10-25T09:27:27.237Z,77.00
2022-10-25T09:30:11.910Z,73.40
2022-10-25T09:32:48.807Z,75.70
2022-10-25T09:35:53.477Z,63.50
2022-10-25T09:38:25.730Z,71.90
2022-10-25T09:40:56.981Z,69.00
2022-10-25T09:43:35.965Z,73.20
2022-10-25T09:46:18.921Z,77.10
2022-10-25T09:48:55.378Z,75.50
2022-10-25T09:51:36.013Z,77.70
2022-10-25T09:54:15.147Z,98.70
2022-10-25T09:56:43.000Z,106.90
2022-10-25T09:59:14.401Z,86.70
2022-10-25T10:01:42.648Z,84.00
2022-10-25T10:04:26.330Z,101.50
2022-10-25T10:06:59.241Z,75.10
2022-10-25T10:09:29.954Z,77.20
2022-10-25T10:12:01.033Z,70.20
2022-10-25T10:14:40.420Z,77.00
2022-10-25T10:17:15.460Z,70.20
2022-10-25T10:19:44.045Z,61.40
2022-10-25T10:22:16.881Z,57.20
2022-10-25T10:25:01.744Z,64.50
2022-10-25T10:27:29.541Z,58.60
2022-10-25T10:30:06.368Z,58.50
2022-10-25T10:35:34.017Z,56.90
2022-10-25T10:38:21.766Z,53.10
2022-10-25T10:40:52.008Z,45.40
2022-10-25T10:43:33.991Z,41.40
2022-10-25T10:46:05.411Z,42.40
2022-10-25T10:48:42.054Z,44.50
2022-10-25T10:51:32.070Z,48.10
2022-10-25T10:54:24.502Z,40.50
2022-10-25T10:57:00.631Z,40.20
2022-10-25T10:59:32.866Z,35.80
2022-10-25T11:02:36.419Z,37.40
2022-10-25T11:05:28.030Z,33.70
2022-10-25T11:07:58.214Z,34.60
2022-10-25T11:10:29.160Z,39.70
2022-10-25T11:13:22.905Z,36.50
2022-10-25T11:16:11.876Z,35.10
2022-10-25T11:18:58.220Z,32.30
2022-10-25T11:21:49.790Z,33.00
2022-10-25T11:24:44.966Z,35.00
2022-10-25T11:27:18.650Z,33.20
2022-10-25T11:30:08.238Z,32.50
2022-10-25T11:32:54.889Z,37.50
2022-10-25T11:35:44.580Z,42.20
2022-10-25T11:38:21.595Z,39.90
2022-10-25T11:40:52.423Z,39.90
2022-10-25T11:46:02.512Z,42.80
2022-10-25T11:48:39.270Z,46.60
2022-10-25T11:51:34.736Z,38.90
2022-10-25T11:54:27.079Z,35.90
2022-10-25T11:57:09.955Z,37.80
2022-10-25T11:59:46.898Z,41.40
2022-10-25T12:02:36.614Z,42.30
2022-10-25T12:05:58.886Z,41.20
2022-10-25T12:08:49.468Z,43.00
2022-10-25T12:11:24.344Z,42.90
2022-10-25T12:14:05.117Z,49.10
2022-10-25T12:16:36.357Z,57.50
2022-10-25T12:19:09.031Z,89.30
2022-10-25T12:21:51.294Z,63.40
2022-10-25T12:24:41.439Z,46.00
2022-10-25T12:27:11.669Z,60.50
2022-10-25T12:29:48.228Z,53.70
2022-10-25T12:32:29.260Z,45.90
2022-10-25T12:34:59.445Z,51.30
2022-10-25T12:37:38.126Z,54.80
2022-10-25T12:40:14.117Z,61.20
2022-10-25T12:42:47.367Z,46.90
2022-10-25T12:46:03.515Z,44.40
2022-10-25T12:49:13.402Z,44.30
2022-10-25T12:52:11.859Z,43.80
2022-10-25T12:55:09.927Z,48.70
2022-10-25T12:57:43.685Z,46.30
2022-10-25T13:00:22.784Z,53.00
2022-10-25T13:03:27.794Z,53.00
2022-10-25T13:06:04.708Z,45.70
2022-10-25T13:08:33.644Z,46.50
2022-10-25T13:11:07.871Z,53.80
2022-10-25T13:13:41.373Z,45.90
2022-10-25T13:16:10.961Z,46.30
2022-10-25T13:18:47.580Z,43.60
2022-10-25T13:21:16.455Z,48.50
2022-10-25T13:23:45.715Z,61.30
2022-10-25T13:26:16.825Z,47.80
2022-10-25T13:28:45.491Z,50.60
2022-10-25T13:31:35.069Z,46.30
2022-10-25T13:34:12.078Z,44.90
2022-10-25T13:36:54.703Z,46.60
2022-10-25T13:39:42.374Z,48.00
2022-10-25T13:42:16.211Z,47.90
2022-10-25T13:45:09.006Z,45.30
2022-10-25T13:47:48.557Z,46.20
2022-10-25T13:50:28.584Z,49.70
2022-10-25T13:53:02.954Z,54.90
2022-10-25T13:55:37.612Z,52.80
2022-10-25T13:58:31.738Z,52.80
2022-10-25T14:01:15.435Z,46.50
2022-10-25T14:04:01.908Z,52.50
2022-10-25T14:06:31.649Z,50.90
2022-10-25T14:09:18.035Z,54.20
2022-10-25T14:11:52.568Z,49.80
2022-10-25T14:14:34.955Z,49.70
2022-10-25T14:17:15.346Z,54.80
2022-10-25T14:19:50.162Z,48.20
2022-10-25T14:22:33.676Z,47.20
2022-10-25T14:25:14.864Z,49.30
2022-10-25T14:27:42.624Z,47.60
2022-10-25T14:30:25.289Z,48.80
2022-10-25T14:32:58.947Z,51.90
2022-10-25T14:35:35.432Z,47.40
2022-10-25T14:38:15.266Z,53.20
2022-10-25T14:40:51.041Z,59.90
2022-10-25T14:43:24.307Z,56.60
2022-10-25T14:46:13.658Z,56.50
2022-10-25T14:48:45.189Z,60.20
2022-10-25T14:51:25.124Z,54.70
2022-10-25T14:53:58.884Z,62.00
2022-10-25T14:56:35.409Z,67.40
2022-10-25T14:59:06.744Z,66.20
2022-10-25T15:01:35.382Z,70.60
2022-10-25T15:04:03.462Z,67.60
2022-10-25T15:06:32.609Z,80.20
2022-10-25T15:09:40.809Z,64.20
2022-10-25T15:12:29.070Z,72.10
2022-10-25T15:15:18.590Z,62.40
2022-10-25T15:17:53.356Z,58.90
2022-10-25T15:20:21.273Z,65.00
2022-10-25T15:22:50.693Z,48.10
2022-10-25T15:25:22.148Z,50.00
2022-10-25T15:30:41.891Z,49.00
2022-10-25T15:33:13.249Z,43.00
2022-10-25T15:35:52.140Z,46.70
2022-10-25T15:38:20.133Z,48.60
2022-10-25T15:40:48.837Z,43.60
2022-10-25T15:43:16.666Z,53.70
2022-10-25T15:45:46.224Z,50.50
2022-10-25T15:48:19.318Z,50.70
2022-10-25T15:50:57.985Z,52.80
2022-10-25T15:53:25.963Z,49.90
2022-10-25T15:55:53.914Z,49.30
2022-10-25T15:58:21.726Z,46.90
2022-10-25T16:00:52.130Z,49.50
2022-10-25T16:03:22.197Z,52.40
2022-10-25T16:05:51.813Z,59.50
2022-10-25T16:08:19.649Z,49.50
2022-10-25T16:10:47.762Z,45.70
2022-10-25T16:13:23.240Z,48.00
2022-10-25T16:15:51.110Z,46.30
2022-10-25T16:18:19.111Z,48.90
2022-10-25T16:20:47.353Z,53.50
2022-10-25T16:23:15.077Z,44.80
2022-10-25T16:25:43.221Z,42.90
2022-10-25T16:28:14.566Z,46.50
2022-10-25T16:30:43.904Z,44.70
2022-10-25T16:33:11.726Z,51.00
2022-10-25T16:35:41.533Z,45.40
2022-10-25T16:40:38.610Z,63.20
2022-10-25T16:43:06.420Z,59.40
2022-10-25T16:45:37.801Z,50.10
2022-10-25T16:48:06.538Z,46.00
2022-10-25T16:50:35.239Z,46.90
2022-10-25T16:53:09.326Z,73.70
2022-10-25T16:55:37.581Z,67.80
2022-10-25T16:58:05.423Z,77.00
2022-10-25T17:00:35.655Z,79.40
2022-10-25T17:03:03.772Z,64.20
2022-10-25T17:05:34.974Z,52.10
2022-10-25T17:08:02.773Z,49.70
2022-10-25T17:10:30.690Z,47.40
2022-10-25T17:13:03.264Z,41.90
2022-10-25T17:15:32.013Z,55.60
2022-10-25T17:17:59.745Z,52.70
2022-10-25T17:20:27.789Z,48.10
2022-10-25T17:22:55.557Z,46.80
2022-10-25T17:25:23.316Z,47.30
2022-10-25T17:27:52.506Z,43.90
2022-10-25T17:30:20.733Z,35.70
2022-10-25T17:32:48.683Z,37.20
2022-10-25T17:35:16.550Z,34.20
2022-10-25T17:37:44.683Z,36.80
2022-10-25T17:40:18.972Z,36.80
2022-10-25T17:42:49.557Z,39.70
2022-10-25T17:45:21.902Z,38.40
2022-10-25T17:47:50.578Z,35.30
2022-10-25T17:50:20.195Z,39.40
2022-10-25T17:52:50.206Z,39.20
2022-10-25T17:55:18.067Z,41.70
2022-10-25T17:57:47.180Z,40.40
2022-10-25T18:00:16.031Z,45.70
2022-10-25T18:02:50.413Z,40.30
2022-10-25T18:05:21.139Z,43.00
2022-10-25T18:07:50.083Z,31.50
2022-10-25T18:10:18.821Z,33.70
2022-10-25T18:12:46.954Z,34.50
2022-10-25T18:15:15.346Z,40.30
2022-10-25T18:17:46.578Z,36.50
2022-10-25T18:20:15.064Z,40.40
2022-10-25T18:22:43.441Z,34.80
2022-10-25T18:25:11.572Z,42.20
2022-10-25T18:27:39.493Z,39.50
2022-10-25T18:30:08.252Z,36.70
2022-10-25T18:32:36.220Z,42.00
2022-10-25T18:35:04.518Z,36.20
2022-10-25T18:37:32.349Z,39.40
2022-10-25T18:40:00.200Z,38.00
2022-10-25T18:42:28.237Z,36.90
2022-10-25T18:44:56.016Z,41.30
2022-10-25T18:47:23.882Z,36.10
2022-10-25T18:49:51.702Z,33.90
2022-10-25T18:52:20.065Z,41.30
2022-10-25T18:54:48.333Z,39.00
2022-10-25T18:57:16.214Z,35.40
2022-10-25T18:59:43.946Z,32.90
2022-10-25T19:02:12.043Z,36.90
2022-10-25T19:04:39.870Z,33.30
2022-10-25T19:07:07.672Z,36.90
2022-10-25T19:09:35.622Z,38.10
2022-10-25T19:12:03.483Z,37.50
2022-10-25T19:14:31.373Z,33.10
2022-10-25T19:16:59.129Z,36.00
2022-10-25T19:19:27.117Z,38.80
2022-10-25T19:21:55.062Z,39.90
2022-10-25T19:24:23.043Z,38.00
2022-10-25T19:26:50.893Z,44.30
2022-10-25T19:29:18.635Z,36.80
2022-10-25T19:31:46.584Z,36.70
2022-10-25T19:34:14.383Z,36.50
2022-10-25T19:36:42.145Z,40.30
2022-10-25T19:39:10.577Z,38.40
2022-10-25T19:41:38.306Z,33.90
2022-10-25T19:44:06.130Z,35.50
2022-10-25T19:46:33.960Z,37.90
2022-10-25T19:49:01.857Z,35.00
2022-10-25T19:51:29.669Z,38.00
2022-10-25T19:53:57.515Z,33.70
2022-10-25T19:56:25.326Z,37.80
2022-10-25T19:58:53.123Z,41.50
2022-10-25T20:01:28.942Z,42.10
2022-10-25T20:03:57.945Z,40.80
2022-10-25T20:06:31.830Z,46.60
2022-10-25T20:09:01.476Z,44.40
2022-10-25T20:11:29.524Z,42.40
2022-10-25T20:14:00.081Z,37.90
2022-10-25T20:16:29.481Z,40.60
2022-10-25T20:19:00.245Z,35.40
2022-10-25T20:21:33.938Z,37.50
2022-10-25T20:24:05.858Z,38.10
2022-10-25T20:26:39.126Z,36.30
2022-10-25T20:29:16.984Z,34.30
2022-10-25T20:31:48.890Z,36.10
2022-10-25T20:34:17.644Z,40.00
2022-10-25T20:36:46.227Z,39.90
2022-10-25T20:39:14.301Z,36.90
2022-10-25T20:41:42.329Z,37.00
2022-10-25T20:44:10.633Z,36.00
2022-10-25T20:46:38.301Z,33.10
2022-10-25T20:49:07.514Z,32.20
2022-10-25T20:51:35.369Z,41.10
2022-10-25T20:54:09.592Z,34.40
2022-10-25T20:56:39.302Z,33.80
2022-10-25T20:59:08.068Z,30.90
2022-10-25T21:01:36.345Z,37.40
2022-10-25T21:04:04.675Z,29.80
2022-10-25T21:06:35.766Z,33.40
2022-10-25T21:09:03.524Z,34.20
2022-10-25T21:11:32.689Z,33.10
2022-10-25T21:14:00.583Z,33.80
2022-10-25T21:16:28.319Z,33.00
2022-10-25T21:18:56.173Z,32.40
2022-10-25T21:21:23.920Z,31.30
2022-10-25T21:23:55.755Z,32.40
2022-10-25T21:26:24.070Z,32.00
2022-10-25T21:28:51.854Z,31.50
2022-10-25T21:31:19.615Z,31.20
2022-10-25T21:33:50.058Z,43.60
2022-10-25T21:36:20.900Z,39.30
2022-10-25T21:38:48.879Z,42.40
2022-10-25T21:41:20.733Z,48.30
2022-10-25T21:43:50.998Z,60.20
2022-10-25T21:46:20.862Z,73.30
2022-10-25T21:48:52.693Z,68.30
2022-10-25T21:51:22.037Z,62.00
2022-10-25T21:53:49.963Z,69.60
2022-10-25T21:56:20.121Z,95.10
2022-10-25T21:58:49.833Z,107.20
2022-10-25T22:01:20.909Z,106.90
2022-10-25T22:03:49.214Z,104.10
2022-10-25T22:06:20.143Z,107.40
2022-10-25T22:11:18.424Z,115.10
2022-10-25T22:13:47.656Z,115.90
2022-10-25T22:16:19.882Z,110.40
2022-10-25T22:18:57.756Z,81.20
2022-10-25T22:21:28.296Z,90.90
2022-10-25T22:23:56.501Z,83.00
2022-10-25T22:26:25.949Z,79.00
2022-10-25T22:28:55.839Z,70.20
2022-10-25T22:31:24.396Z,56.10
2022-10-25T22:33:54.702Z,55.50
2022-10-25T22:36:25.374Z,47.30
2022-10-25T22:38:53.312Z,55.10
2022-10-25T22:41:23.193Z,48.40
2022-10-25T22:43:51.808Z,50.80
2022-10-25T22:46:25.650Z,55.80
2022-10-25T22:48:55.406Z,52.20
2022-10-25T22:51:25.332Z,45.10
2022-10-25T22:53:53.591Z,47.50
2022-10-25T22:56:26.661Z,51.20
2022-10-25T22:58:56.833Z,55.10
2022-10-25T23:01:30.898Z,46.10
2022-10-25T23:03:59.984Z,36.90
2022-10-25T23:06:29.968Z,42.10
2022-10-25T23:08:59.982Z,37.10
2022-10-25T23:11:30.060Z,44.60
2022-10-25T23:13:58.560Z,50.10
2022-10-25T23:16:27.629Z,73.70
2022-10-25T23:18:55.845Z,75.40
2022-10-25T23:21:26.221Z,83.00
2022-10-25T23:23:56.104Z,76.10
2022-10-25T23:26:36.378Z,67.70
2022-10-25T23:29:05.089Z,60.60
2022-10-25T23:31:32.856Z,46.70
2022-10-25T23:34:01.006Z,39.90
2022-10-25T23:36:37.404Z,33.50
2022-10-25T23:39:07.585Z,35.50
2022-10-25T23:41:35.660Z,36.70
2022-10-25T23:44:03.745Z,35.00
2022-10-25T23:46:31.560Z,33.40
2022-10-25T23:48:59.322Z,33.60
2022-10-25T23:51:27.079Z,34.90
2022-10-25T23:53:54.896Z,32.00
2022-10-25T23:56:22.756Z,30.50
2022-10-25T23:58:53.813Z,33.10
